sensor_id;sensor_type;location;lat;lon;timestamp;temperature;humidity
47604;DHT22;33326;51.116;6.900;2023-01-08T00:03:58;11.30;99.90
47604;DHT22;33326;51.116;6.900;2023-01-08T00:09:00;11.20;99.90
47604;DHT22;33326;51.116;6.900;2023-01-08T00:14:04;11.30;99.90
47604;DHT22;33326;51.116;6.900;2023-01-08T00:19:05;11.30;99.90
47604;DHT22;33326;51.116;6.900;2023-01-08T00:24:07;11.20;99.90
47604;DHT22;33326;51.116;6.900;2023-01-08T00:29:11;11.30;99.90
47604;DHT22;33326;51.116;6.900;2023-01-08T00:34:13;11.20;99.90
47604;DHT22;33326;51.116;6.900;2023-01-08T00:39:14;11.20;99.90
47604;DHT22;33326;51.116;6.900;2023-01-08T00:44:18;11.20;99.90
47604;DHT22;33326;51.116;6.900;2023-01-08T00:49:20;11.20;99.90
47604;DHT22;33326;51.116;6.900;2023-01-08T00:54:21;11.30;99.90
47604;DHT22;33326;51.116;6.900;2023-01-08T00:59:25;11.30;99.90
47604;DHT22;33326;51.116;6.900;2023-01-08T01:04:27;11.30;99.90
47604;DHT22;33326;51.116;6.900;2023-01-08T01:09:29;11.20;99.90
47604;DHT22;33326;51.116;6.900;2023-01-08T01:14:32;11.30;99.90
47604;DHT22;33326;51.116;6.900;2023-01-08T01:19:34;11.30;99.90
47604;DHT22;33326;51.116;6.900;2023-01-08T01:24:36;11.30;99.90
47604;DHT22;33326;51.116;6.900;2023-01-08T01:29:40;11.30;99.90
47604;DHT22;33326;51.116;6.900;2023-01-08T01:34:42;11.30;99.90
47604;DHT22;33326;51.116;6.900;2023-01-08T01:39:44;11.30;99.90
47604;DHT22;33326;51.116;6.900;2023-01-08T01:44:47;11.50;99.90
47604;DHT22;33326;51.116;6.900;2023-01-08T01:49:53;11.30;99.90
47604;DHT22;33326;51.116;6.900;2023-01-08T01:54:57;11.40;99.90
47604;DHT22;33326;51.116;6.900;2023-01-08T02:00:04;11.40;99.90
47604;DHT22;33326;51.116;6.900;2023-01-08T02:05:12;11.40;99.90
47604;DHT22;33326;51.116;6.900;2023-01-08T02:10:18;11.30;99.90
47604;DHT22;33326;51.116;6.900;2023-01-08T02:15:26;11.30;99.90
47604;DHT22;33326;51.116;6.900;2023-01-08T02:20:35;11.30;99.90
47604;DHT22;33326;51.116;6.900;2023-01-08T02:26:05;11.30;99.90
47604;DHT22;33326;51.116;6.900;2023-01-08T02:31:10;11.30;99.90
47604;DHT22;33326;51.116;6.900;2023-01-08T02:36:28;11.20;99.90
47604;DHT22;33326;51.116;6.900;2023-01-08T02:41:40;11.20;99.90
47604;DHT22;33326;51.116;6.900;2023-01-08T02:46:45;11.20;99.90
47604;DHT22;33326;51.116;6.900;2023-01-08T02:51:52;11.20;99.90
47604;DHT22;33326;51.116;6.900;2023-01-08T02:56:59;11.10;99.90
47604;DHT22;33326;51.116;6.900;2023-01-08T03:02:03;11.10;99.90
47604;DHT22;33326;51.116;6.900;2023-01-08T03:07:04;11.10;99.90
47604;DHT22;33326;51.116;6.900;2023-01-08T03:12:10;11.10;99.90
47604;DHT22;33326;51.116;6.900;2023-01-08T03:17:19;11.00;99.90
47604;DHT22;33326;51.116;6.900;2023-01-08T03:22:23;11.10;99.90
47604;DHT22;33326;51.116;6.900;2023-01-08T03:27:28;11.00;99.90
47604;DHT22;33326;51.116;6.900;2023-01-08T03:32:32;11.10;99.90
47604;DHT22;33326;51.116;6.900;2023-01-08T03:37:37;11.00;99.90
47604;DHT22;33326;51.116;6.900;2023-01-08T03:42:41;11.00;99.90
47604;DHT22;33326;51.116;6.900;2023-01-08T03:47:43;11.00;99.90
47604;DHT22;33326;51.116;6.900;2023-01-08T03:52:46;11.00;99.90
47604;DHT22;33326;51.116;6.900;2023-01-08T03:57:49;11.00;99.90
47604;DHT22;33326;51.116;6.900;2023-01-08T04:02:51;11.00;99.90
47604;DHT22;33326;51.116;6.900;2023-01-08T04:07:54;10.90;99.90
47604;DHT22;33326;51.116;6.900;2023-01-08T04:12:57;11.00;99.90
47604;DHT22;33326;51.116;6.900;2023-01-08T04:17:59;11.00;99.90
47604;DHT22;33326;51.116;6.900;2023-01-08T04:23:01;10.90;99.90
47604;DHT22;33326;51.116;6.900;2023-01-08T04:28:04;10.90;99.90
47604;DHT22;33326;51.116;6.900;2023-01-08T04:33:06;10.90;99.90
47604;DHT22;33326;51.116;6.900;2023-01-08T04:38:08;10.90;99.90
47604;DHT22;33326;51.116;6.900;2023-01-08T04:43:11;11.00;99.90
47604;DHT22;33326;51.116;6.900;2023-01-08T04:48:13;10.90;99.90
47604;DHT22;33326;51.116;6.900;2023-01-08T04:53:14;10.90;99.90
47604;DHT22;33326;51.116;6.900;2023-01-08T04:58:17;10.80;99.90
47604;DHT22;33326;51.116;6.900;2023-01-08T05:03:19;10.80;99.90
47604;DHT22;33326;51.116;6.900;2023-01-08T05:08:21;10.80;99.90
47604;DHT22;33326;51.116;6.900;2023-01-08T05:13:24;10.80;99.90
47604;DHT22;33326;51.116;6.900;2023-01-08T05:18:26;10.90;99.90
47604;DHT22;33326;51.116;6.900;2023-01-08T05:23:28;10.80;99.90
47604;DHT22;33326;51.116;6.900;2023-01-08T05:28:33;10.90;99.90
47604;DHT22;33326;51.116;6.900;2023-01-08T05:33:34;10.80;99.90
47604;DHT22;33326;51.116;6.900;2023-01-08T05:38:36;10.80;99.90
47604;DHT22;33326;51.116;6.900;2023-01-08T05:43:40;10.80;99.90
47604;DHT22;33326;51.116;6.900;2023-01-08T05:48:42;10.60;99.90
47604;DHT22;33326;51.116;6.900;2023-01-08T05:53:43;10.60;99.90
47604;DHT22;33326;51.116;6.900;2023-01-08T05:58:47;10.50;99.90
47604;DHT22;33326;51.116;6.900;2023-01-08T06:03:48;10.50;99.90
47604;DHT22;33326;51.116;6.900;2023-01-08T06:08:51;10.40;99.90
47604;DHT22;33326;51.116;6.900;2023-01-08T06:13:54;10.50;99.90
47604;DHT22;33326;51.116;6.900;2023-01-08T06:18:56;10.50;99.90
47604;DHT22;33326;51.116;6.900;2023-01-08T06:23:57;10.50;99.90
47604;DHT22;33326;51.116;6.900;2023-01-08T06:29:01;10.50;99.90
47604;DHT22;33326;51.116;6.900;2023-01-08T06:34:02;10.50;99.90
47604;DHT22;33326;51.116;6.900;2023-01-08T06:39:05;10.50;99.90
47604;DHT22;33326;51.116;6.900;2023-01-08T06:44:08;10.50;99.90
47604;DHT22;33326;51.116;6.900;2023-01-08T06:49:10;10.60;99.90
47604;DHT22;33326;51.116;6.900;2023-01-08T06:54:13;10.60;99.90
47604;DHT22;33326;51.116;6.900;2023-01-08T06:59:16;10.50;99.90
47604;DHT22;33326;51.116;6.900;2023-01-08T07:04:18;10.00;99.90
47604;DHT22;33326;51.116;6.900;2023-01-08T07:09:20;9.40;99.90
47604;DHT22;33326;51.116;6.900;2023-01-08T07:14:23;9.20;99.90
47604;DHT22;33326;51.116;6.900;2023-01-08T07:19:25;9.00;99.90
47604;DHT22;33326;51.116;6.900;2023-01-08T07:24:27;8.90;99.90
47604;DHT22;33326;51.116;6.900;2023-01-08T07:29:30;8.90;99.90
47604;DHT22;33326;51.116;6.900;2023-01-08T07:34:32;9.00;99.90
47604;DHT22;33326;51.116;6.900;2023-01-08T07:39:34;8.90;99.90
47604;DHT22;33326;51.116;6.900;2023-01-08T07:44:37;8.90;99.90
47604;DHT22;33326;51.116;6.900;2023-01-08T07:49:39;9.00;99.90
47604;DHT22;33326;51.116;6.900;2023-01-08T07:54:41;9.00;99.90
47604;DHT22;33326;51.116;6.900;2023-01-08T07:59:44;9.10;99.90
47604;DHT22;33326;51.116;6.900;2023-01-08T08:04:46;9.10;99.90
47604;DHT22;33326;51.116;6.900;2023-01-08T08:09:47;9.20;99.90
47604;DHT22;33326;51.116;6.900;2023-01-08T08:14:51;9.30;99.90
47604;DHT22;33326;51.116;6.900;2023-01-08T08:19:52;9.40;99.90
47604;DHT22;33326;51.116;6.900;2023-01-08T08:24:54;9.50;99.90
47604;DHT22;33326;51.116;6.900;2023-01-08T08:29:57;9.40;99.90
47604;DHT22;33326;51.116;6.900;2023-01-08T08:34:59;9.40;99.90
47604;DHT22;33326;51.116;6.900;2023-01-08T08:40:02;9.40;99.90
47604;DHT22;33326;51.116;6.900;2023-01-08T08:45:06;9.50;99.90
47604;DHT22;33326;51.116;6.900;2023-01-08T08:50:09;9.70;99.90
47604;DHT22;33326;51.116;6.900;2023-01-08T08:55:11;9.70;99.90
47604;DHT22;33326;51.116;6.900;2023-01-08T09:00:17;9.70;99.90
47604;DHT22;33326;51.116;6.900;2023-01-08T09:05:19;9.70;99.90
47604;DHT22;33326;51.116;6.900;2023-01-08T09:10:21;9.60;99.90
47604;DHT22;33326;51.116;6.900;2023-01-08T09:15:25;9.50;99.90
47604;DHT22;33326;51.116;6.900;2023-01-08T09:20:27;9.40;99.90
47604;DHT22;33326;51.116;6.900;2023-01-08T09:25:29;9.40;99.90
47604;DHT22;33326;51.116;6.900;2023-01-08T09:30:32;9.40;99.90
47604;DHT22;33326;51.116;6.900;2023-01-08T09:35:34;9.50;99.90
47604;DHT22;33326;51.116;6.900;2023-01-08T09:40:41;9.70;99.90
47604;DHT22;33326;51.116;6.900;2023-01-08T09:45:50;9.90;99.90
47604;DHT22;33326;51.116;6.900;2023-01-08T09:50:53;10.10;99.90
47604;DHT22;33326;51.116;6.900;2023-01-08T09:55:57;10.20;99.90
47604;DHT22;33326;51.116;6.900;2023-01-08T10:01:02;10.40;99.90
47604;DHT22;33326;51.116;6.900;2023-01-08T10:06:10;10.40;99.90
47604;DHT22;33326;51.116;6.900;2023-01-08T10:11:13;10.40;99.90
47604;DHT22;33326;51.116;6.900;2023-01-08T10:16:23;10.40;99.90
47604;DHT22;33326;51.116;6.900;2023-01-08T10:21:30;10.50;99.90
47604;DHT22;33326;51.116;6.900;2023-01-08T10:26:34;10.60;99.90
47604;DHT22;33326;51.116;6.900;2023-01-08T10:31:49;10.90;99.90
47604;DHT22;33326;51.116;6.900;2023-01-08T10:36:52;11.10;99.90
47604;DHT22;33326;51.116;6.900;2023-01-08T10:41:56;11.20;99.90
47604;DHT22;33326;51.116;6.900;2023-01-08T10:47:00;11.30;99.90
47604;DHT22;33326;51.116;6.900;2023-01-08T10:52:03;11.40;99.90
47604;DHT22;33326;51.116;6.900;2023-01-08T10:57:21;11.70;99.90
47604;DHT22;33326;51.116;6.900;2023-01-08T11:02:33;12.00;99.90
47604;DHT22;33326;51.116;6.900;2023-01-08T11:07:36;12.20;99.90
47604;DHT22;33326;51.116;6.900;2023-01-08T11:12:40;12.30;99.90
47604;DHT22;33326;51.116;6.900;2023-01-08T11:17:44;12.50;99.90
47604;DHT22;33326;51.116;6.900;2023-01-08T11:22:45;12.60;99.90
47604;DHT22;33326;51.116;6.900;2023-01-08T11:27:48;12.80;99.90
47604;DHT22;33326;51.116;6.900;2023-01-08T11:32:56;12.70;99.90
47604;DHT22;33326;51.116;6.900;2023-01-08T11:38:01;12.80;99.90
47604;DHT22;33326;51.116;6.900;2023-01-08T11:43:15;12.70;99.90
47604;DHT22;33326;51.116;6.900;2023-01-08T11:48:34;12.60;99.90
47604;DHT22;33326;51.116;6.900;2023-01-08T11:53:42;12.60;99.90
47604;DHT22;33326;51.116;6.900;2023-01-08T11:58:58;12.60;99.90
47604;DHT22;33326;51.116;6.900;2023-01-08T12:09:37;12.40;99.90
47604;DHT22;33326;51.116;6.900;2023-01-08T12:14:47;12.30;99.90
47604;DHT22;33326;51.116;6.900;2023-01-08T12:20:10;12.30;99.90
47604;DHT22;33326;51.116;6.900;2023-01-08T12:25:30;12.20;99.90
47604;DHT22;33326;51.116;6.900;2023-01-08T12:30:45;12.20;99.90
47604;DHT22;33326;51.116;6.900;2023-01-08T12:35:51;12.10;99.90
47604;DHT22;33326;51.116;6.900;2023-01-08T12:40:58;12.00;99.90
47604;DHT22;33326;51.116;6.900;2023-01-08T12:46:01;12.10;99.90
47604;DHT22;33326;51.116;6.900;2023-01-08T12:51:07;12.00;99.90
47604;DHT22;33326;51.116;6.900;2023-01-08T12:56:15;12.00;99.90
47604;DHT22;33326;51.116;6.900;2023-01-08T13:01:28;12.10;99.90
47604;DHT22;33326;51.116;6.900;2023-01-08T13:06:32;12.00;99.90
47604;DHT22;33326;51.116;6.900;2023-01-08T13:11:35;11.90;99.90
47604;DHT22;33326;51.116;6.900;2023-01-08T13:16:39;11.90;99.90
47604;DHT22;33326;51.116;6.900;2023-01-08T13:21:49;11.80;99.90
47604;DHT22;33326;51.116;6.900;2023-01-08T13:26:51;11.90;99.90
47604;DHT22;33326;51.116;6.900;2023-01-08T13:31:53;11.90;99.90
47604;DHT22;33326;51.116;6.900;2023-01-08T13:36:57;11.70;99.90
47604;DHT22;33326;51.116;6.900;2023-01-08T13:42:03;11.70;99.90
47604;DHT22;33326;51.116;6.900;2023-01-08T13:47:17;11.90;99.90
47604;DHT22;33326;51.116;6.900;2023-01-08T13:52:32;11.90;99.90
47604;DHT22;33326;51.116;6.900;2023-01-08T13:57:38;11.80;99.90
47604;DHT22;33326;51.116;6.900;2023-01-08T14:02:43;11.80;99.90
47604;DHT22;33326;51.116;6.900;2023-01-08T14:07:51;11.80;99.90
47604;DHT22;33326;51.116;6.900;2023-01-08T14:12:57;12.00;99.90
47604;DHT22;33326;51.116;6.900;2023-01-08T14:18:03;12.00;99.90
47604;DHT22;33326;51.116;6.900;2023-01-08T14:23:11;11.90;99.90
47604;DHT22;33326;51.116;6.900;2023-01-08T14:28:15;11.80;99.90
47604;DHT22;33326;51.116;6.900;2023-01-08T14:33:21;11.80;99.90
47604;DHT22;33326;51.116;6.900;2023-01-08T14:38:27;11.60;99.90
47604;DHT22;33326;51.116;6.900;2023-01-08T14:43:32;11.50;99.90
47604;DHT22;33326;51.116;6.900;2023-01-08T14:48:38;11.30;99.90
47604;DHT22;33326;51.116;6.900;2023-01-08T14:53:46;11.30;99.90
47604;DHT22;33326;51.116;6.900;2023-01-08T14:58:49;11.30;99.90
47604;DHT22;33326;51.116;6.900;2023-01-08T15:04:02;11.20;99.90
47604;DHT22;33326;51.116;6.900;2023-01-08T15:09:19;11.20;99.90
47604;DHT22;33326;51.116;6.900;2023-01-08T15:14:23;11.20;99.90
47604;DHT22;33326;51.116;6.900;2023-01-08T15:19:27;11.20;99.90
47604;DHT22;33326;51.116;6.900;2023-01-08T15:24:32;11.30;99.90
47604;DHT22;33326;51.116;6.900;2023-01-08T15:29:38;11.30;99.90
47604;DHT22;33326;51.116;6.900;2023-01-08T15:34:41;11.20;99.90
47604;DHT22;33326;51.116;6.900;2023-01-08T15:39:44;11.20;99.90
47604;DHT22;33326;51.116;6.900;2023-01-08T15:44:46;11.10;99.90
47604;DHT22;33326;51.116;6.900;2023-01-08T15:49:48;11.00;99.90
47604;DHT22;33326;51.116;6.900;2023-01-08T15:54:51;11.10;99.90
47604;DHT22;33326;51.116;6.900;2023-01-08T15:59:53;11.00;99.90
47604;DHT22;33326;51.116;6.900;2023-01-08T16:04:55;10.90;99.90
47604;DHT22;33326;51.116;6.900;2023-01-08T16:09:58;10.90;99.90
47604;DHT22;33326;51.116;6.900;2023-01-08T16:15:00;10.70;99.90
47604;DHT22;33326;51.116;6.900;2023-01-08T16:20:02;10.60;99.90
47604;DHT22;33326;51.116;6.900;2023-01-08T16:25:07;10.50;99.90
47604;DHT22;33326;51.116;6.900;2023-01-08T16:30:12;10.40;99.90
47604;DHT22;33326;51.116;6.900;2023-01-08T16:35:15;10.30;99.90
47604;DHT22;33326;51.116;6.900;2023-01-08T16:40:18;10.30;99.90
47604;DHT22;33326;51.116;6.900;2023-01-08T16:45:20;10.30;99.90
47604;DHT22;33326;51.116;6.900;2023-01-08T16:50:21;10.30;99.90
47604;DHT22;33326;51.116;6.900;2023-01-08T16:55:25;10.20;99.90
47604;DHT22;33326;51.116;6.900;2023-01-08T17:00:26;10.10;99.90
47604;DHT22;33326;51.116;6.900;2023-01-08T17:05:28;10.10;99.90
47604;DHT22;33326;51.116;6.900;2023-01-08T17:10:31;10.10;99.90
47604;DHT22;33326;51.116;6.900;2023-01-08T17:15:33;10.10;99.90
47604;DHT22;33326;51.116;6.900;2023-01-08T17:20:36;10.10;99.90
47604;DHT22;33326;51.116;6.900;2023-01-08T17:25:40;10.10;99.90
47604;DHT22;33326;51.116;6.900;2023-01-08T17:30:42;10.00;99.90
47604;DHT22;33326;51.116;6.900;2023-01-08T17:35:43;10.00;99.90
47604;DHT22;33326;51.116;6.900;2023-01-08T17:40:46;10.00;99.90
47604;DHT22;33326;51.116;6.900;2023-01-08T17:45:48;10.00;99.90
47604;DHT22;33326;51.116;6.900;2023-01-08T17:50:50;10.00;99.90
47604;DHT22;33326;51.116;6.900;2023-01-08T17:55:53;10.00;99.90
47604;DHT22;33326;51.116;6.900;2023-01-08T18:00:55;10.00;99.90
47604;DHT22;33326;51.116;6.900;2023-01-08T18:05:57;10.00;99.90
47604;DHT22;33326;51.116;6.900;2023-01-08T18:11:01;10.00;99.90
47604;DHT22;33326;51.116;6.900;2023-01-08T18:16:05;10.00;99.90
47604;DHT22;33326;51.116;6.900;2023-01-08T18:21:07;10.00;99.90
47604;DHT22;33326;51.116;6.900;2023-01-08T18:26:11;10.00;99.90
47604;DHT22;33326;51.116;6.900;2023-01-08T18:31:13;9.90;99.90
47604;DHT22;33326;51.116;6.900;2023-01-08T18:36:15;9.90;99.90
47604;DHT22;33326;51.116;6.900;2023-01-08T18:41:19;9.90;99.90
47604;DHT22;33326;51.116;6.900;2023-01-08T18:46:39;9.90;99.90
47604;DHT22;33326;51.116;6.900;2023-01-08T18:51:42;10.00;99.90
47604;DHT22;33326;51.116;6.900;2023-01-08T18:56:45;10.00;99.90
47604;DHT22;33326;51.116;6.900;2023-01-08T19:01:47;10.00;99.90
47604;DHT22;33326;51.116;6.900;2023-01-08T19:06:49;9.90;99.90
47604;DHT22;33326;51.116;6.900;2023-01-08T19:11:52;9.90;99.90
47604;DHT22;33326;51.116;6.900;2023-01-08T19:16:54;9.90;99.90
47604;DHT22;33326;51.116;6.900;2023-01-08T19:21:56;10.00;99.90
47604;DHT22;33326;51.116;6.900;2023-01-08T19:26:59;10.00;99.90
47604;DHT22;33326;51.116;6.900;2023-01-08T19:32:01;10.10;99.90
47604;DHT22;33326;51.116;6.900;2023-01-08T19:37:02;10.10;99.90
47604;DHT22;33326;51.116;6.900;2023-01-08T19:42:06;10.00;99.90
47604;DHT22;33326;51.116;6.900;2023-01-08T19:47:25;9.90;99.90
47604;DHT22;33326;51.116;6.900;2023-01-08T19:52:27;9.80;99.90
47604;DHT22;33326;51.116;6.900;2023-01-08T19:57:30;9.70;99.90
47604;DHT22;33326;51.116;6.900;2023-01-08T20:02:32;9.60;99.90
47604;DHT22;33326;51.116;6.900;2023-01-08T20:07:34;9.50;99.90
47604;DHT22;33326;51.116;6.900;2023-01-08T20:12:38;9.50;99.90
47604;DHT22;33326;51.116;6.900;2023-01-08T20:17:40;9.50;99.90
47604;DHT22;33326;51.116;6.900;2023-01-08T20:22:42;9.40;99.90
47604;DHT22;33326;51.116;6.900;2023-01-08T20:27:45;9.40;99.90
47604;DHT22;33326;51.116;6.900;2023-01-08T20:32:47;9.40;99.90
47604;DHT22;33326;51.116;6.900;2023-01-08T20:37:48;9.50;99.90
47604;DHT22;33326;51.116;6.900;2023-01-08T20:42:52;9.50;99.90
47604;DHT22;33326;51.116;6.900;2023-01-08T20:47:53;9.50;99.90
47604;DHT22;33326;51.116;6.900;2023-01-08T20:52:56;9.60;99.90
47604;DHT22;33326;51.116;6.900;2023-01-08T20:57:59;9.70;99.90
47604;DHT22;33326;51.116;6.900;2023-01-08T21:03:02;9.80;99.90
47604;DHT22;33326;51.116;6.900;2023-01-08T21:08:05;9.80;99.90
47604;DHT22;33326;51.116;6.900;2023-01-08T21:13:08;9.80;99.90
47604;DHT22;33326;51.116;6.900;2023-01-08T21:18:11;9.90;99.90
47604;DHT22;33326;51.116;6.900;2023-01-08T21:23:13;9.90;99.90
47604;DHT22;33326;51.116;6.900;2023-01-08T21:28:16;9.90;99.90
47604;DHT22;33326;51.116;6.900;2023-01-08T21:33:18;10.00;99.90
47604;DHT22;33326;51.116;6.900;2023-01-08T21:38:20;10.00;99.90
47604;DHT22;33326;51.116;6.900;2023-01-08T21:43:23;10.00;99.90
47604;DHT22;33326;51.116;6.900;2023-01-08T21:48:43;10.10;99.90
47604;DHT22;33326;51.116;6.900;2023-01-08T21:53:49;10.00;99.90
47604;DHT22;33326;51.116;6.900;2023-01-08T21:58:52;10.10;99.90
47604;DHT22;33326;51.116;6.900;2023-01-08T22:03:54;10.00;99.90
47604;DHT22;33326;51.116;6.900;2023-01-08T22:08:56;10.00;99.90
47604;DHT22;33326;51.116;6.900;2023-01-08T22:13:59;10.00;99.90
47604;DHT22;33326;51.116;6.900;2023-01-08T22:19:01;10.00;99.90
47604;DHT22;33326;51.116;6.900;2023-01-08T22:24:03;10.10;99.90
47604;DHT22;33326;51.116;6.900;2023-01-08T22:29:06;10.10;99.90
47604;DHT22;33326;51.116;6.900;2023-01-08T22:34:08;10.10;99.90
47604;DHT22;33326;51.116;6.900;2023-01-08T22:39:13;10.00;99.90
47604;DHT22;33326;51.116;6.900;2023-01-08T22:44:16;10.00;99.90
47604;DHT22;33326;51.116;6.900;2023-01-08T22:49:18;10.00;99.90
47604;DHT22;33326;51.116;6.900;2023-01-08T22:54:20;10.00;99.90
47604;DHT22;33326;51.116;6.900;2023-01-08T22:59:23;10.00;99.90
47604;DHT22;33326;51.116;6.900;2023-01-08T23:04:25;9.90;99.90
47604;DHT22;33326;51.116;6.900;2023-01-08T23:09:27;9.90;99.90
47604;DHT22;33326;51.116;6.900;2023-01-08T23:14:30;9.80;99.90
47604;DHT22;33326;51.116;6.900;2023-01-08T23:19:32;9.80;99.90
47604;DHT22;33326;51.116;6.900;2023-01-08T23:24:34;9.80;99.90
47604;DHT22;33326;51.116;6.900;2023-01-08T23:29:37;9.70;99.90
47604;DHT22;33326;51.116;6.900;2023-01-08T23:34:39;9.70;99.90
47604;DHT22;33326;51.116;6.900;2023-01-08T23:39:41;9.70;99.90
47604;DHT22;33326;51.116;6.900;2023-01-08T23:44:44;9.70;99.90
47604;DHT22;33326;51.116;6.900;2023-01-08T23:49:46;9.60;99.90
47604;DHT22;33326;51.116;6.900;2023-01-08T23:54:48;9.40;99.90
47604;DHT22;33326;51.116;6.900;2023-01-08T23:59:53;9.20;99.90
